sensor_id;sensor_type;location;lat;lon;timestamp;P1;durP1;ratioP1;P2;durP2;ratioP2
16824;SDS011;8529;48.108;-1.706;2023-08-07T00:00:04;6.00;;;2.03;;
16824;SDS011;8529;48.108;-1.706;2023-08-07T00:02:34;4.97;;;1.90;;
16824;SDS011;8529;48.108;-1.706;2023-08-07T00:05:01;3.88;;;1.98;;
16824;SDS011;8529;48.108;-1.706;2023-08-07T00:07:28;4.05;;;2.05;;
16824;SDS011;8529;48.108;-1.706;2023-08-07T00:09:55;4.75;;;1.90;;
16824;SDS011;8529;48.108;-1.706;2023-08-07T00:12:24;3.20;;;1.73;;
16824;SDS011;8529;48.108;-1.706;2023-08-07T00:14:51;4.43;;;1.88;;
16824;SDS011;8529;48.108;-1.706;2023-08-07T00:17:18;3.10;;;1.65;;
16824;SDS011;8529;48.108;-1.706;2023-08-07T00:19:45;6.57;;;1.55;;
16824;SDS011;8529;48.108;-1.706;2023-08-07T00:22:12;6.43;;;2.28;;
16824;SDS011;8529;48.108;-1.706;2023-08-07T00:24:40;3.53;;;1.58;;
16824;SDS011;8529;48.108;-1.706;2023-08-07T00:27:07;3.78;;;1.52;;
16824;SDS011;8529;48.108;-1.706;2023-08-07T00:29:37;5.07;;;2.17;;
16824;SDS011;8529;48.108;-1.706;2023-08-07T00:32:04;3.72;;;2.10;;
16824;SDS011;8529;48.108;-1.706;2023-08-07T00:34:31;4.25;;;2.20;;
16824;SDS011;8529;48.108;-1.706;2023-08-07T00:36:59;5.13;;;2.63;;
16824;SDS011;8529;48.108;-1.706;2023-08-07T00:39:26;4.20;;;2.08;;
16824;SDS011;8529;48.108;-1.706;2023-08-07T00:41:53;3.47;;;2.15;;
16824;SDS011;8529;48.108;-1.706;2023-08-07T00:44:20;4.13;;;2.15;;
16824;SDS011;8529;48.108;-1.706;2023-08-07T00:46:49;4.07;;;2.08;;
16824;SDS011;8529;48.108;-1.706;2023-08-07T00:49:17;5.20;;;2.17;;
16824;SDS011;8529;48.108;-1.706;2023-08-07T00:51:45;5.93;;;2.08;;
16824;SDS011;8529;48.108;-1.706;2023-08-07T00:54:14;6.28;;;2.15;;
16824;SDS011;8529;48.108;-1.706;2023-08-07T00:56:41;5.10;;;1.95;;
16824;SDS011;8529;48.108;-1.706;2023-08-07T00:59:08;4.65;;;2.55;;
16824;SDS011;8529;48.108;-1.706;2023-08-07T01:01:36;4.20;;;2.05;;
16824;SDS011;8529;48.108;-1.706;2023-08-07T01:04:04;2.92;;;1.60;;
16824;SDS011;8529;48.108;-1.706;2023-08-07T01:06:31;7.78;;;2.83;;
16824;SDS011;8529;48.108;-1.706;2023-08-07T01:08:59;6.90;;;2.00;;
16824;SDS011;8529;48.108;-1.706;2023-08-07T01:11:29;5.35;;;2.00;;
16824;SDS011;8529;48.108;-1.706;2023-08-07T01:14:00;3.83;;;1.95;;
16824;SDS011;8529;48.108;-1.706;2023-08-07T01:16:28;4.28;;;2.38;;
16824;SDS011;8529;48.108;-1.706;2023-08-07T01:18:56;5.07;;;2.40;;
16824;SDS011;8529;48.108;-1.706;2023-08-07T01:21:25;6.00;;;2.78;;
16824;SDS011;8529;48.108;-1.706;2023-08-07T01:23:53;4.68;;;2.20;;
16824;SDS011;8529;48.108;-1.706;2023-08-07T01:26:21;4.80;;;2.00;;
16824;SDS011;8529;48.108;-1.706;2023-08-07T01:28:50;7.70;;;2.25;;
16824;SDS011;8529;48.108;-1.706;2023-08-07T01:31:20;3.85;;;2.00;;
16824;SDS011;8529;48.108;-1.706;2023-08-07T01:33:51;5.75;;;2.00;;
16824;SDS011;8529;48.108;-1.706;2023-08-07T01:36:21;3.92;;;2.13;;
16824;SDS011;8529;48.108;-1.706;2023-08-07T01:38:50;6.75;;;2.30;;
16824;SDS011;8529;48.108;-1.706;2023-08-07T01:41:19;11.07;;;3.03;;
16824;SDS011;8529;48.108;-1.706;2023-08-07T01:43:46;5.72;;;2.28;;
16824;SDS011;8529;48.108;-1.706;2023-08-07T01:46:13;2.92;;;2.10;;
16824;SDS011;8529;48.108;-1.706;2023-08-07T01:48:40;7.25;;;2.15;;
16824;SDS011;8529;48.108;-1.706;2023-08-07T01:51:08;4.10;;;2.22;;
16824;SDS011;8529;48.108;-1.706;2023-08-07T01:53:35;3.58;;;2.20;;
16824;SDS011;8529;48.108;-1.706;2023-08-07T01:56:02;7.90;;;2.22;;
16824;SDS011;8529;48.108;-1.706;2023-08-07T01:58:31;5.25;;;2.38;;
16824;SDS011;8529;48.108;-1.706;2023-08-07T02:00:58;5.30;;;2.22;;
16824;SDS011;8529;48.108;-1.706;2023-08-07T02:03:25;3.85;;;2.30;;
16824;SDS011;8529;48.108;-1.706;2023-08-07T02:05:52;3.85;;;2.08;;
16824;SDS011;8529;48.108;-1.706;2023-08-07T02:08:19;6.05;;;3.35;;
16824;SDS011;8529;48.108;-1.706;2023-08-07T02:10:47;8.45;;;3.03;;
16824;SDS011;8529;48.108;-1.706;2023-08-07T02:13:14;7.55;;;2.30;;
16824;SDS011;8529;48.108;-1.706;2023-08-07T02:15:42;5.63;;;2.05;;
16824;SDS011;8529;48.108;-1.706;2023-08-07T02:18:09;5.82;;;3.08;;
16824;SDS011;8529;48.108;-1.706;2023-08-07T02:20:36;4.68;;;2.22;;
16824;SDS011;8529;48.108;-1.706;2023-08-07T02:23:04;3.92;;;2.13;;
16824;SDS011;8529;48.108;-1.706;2023-08-07T02:25:31;7.75;;;2.30;;
16824;SDS011;8529;48.108;-1.706;2023-08-07T02:27:58;4.45;;;1.90;;
16824;SDS011;8529;48.108;-1.706;2023-08-07T02:30:25;7.72;;;2.58;;
16824;SDS011;8529;48.108;-1.706;2023-08-07T02:32:54;8.43;;;2.67;;
16824;SDS011;8529;48.108;-1.706;2023-08-07T02:35:21;4.38;;;2.40;;
16824;SDS011;8529;48.108;-1.706;2023-08-07T02:37:48;6.43;;;2.40;;
16824;SDS011;8529;48.108;-1.706;2023-08-07T02:40:15;5.03;;;2.15;;
16824;SDS011;8529;48.108;-1.706;2023-08-07T02:42:44;5.90;;;2.03;;
16824;SDS011;8529;48.108;-1.706;2023-08-07T02:45:11;3.85;;;2.38;;
16824;SDS011;8529;48.108;-1.706;2023-08-07T02:47:38;4.28;;;2.20;;
16824;SDS011;8529;48.108;-1.706;2023-08-07T02:50:07;5.10;;;2.33;;
16824;SDS011;8529;48.108;-1.706;2023-08-07T02:52:34;7.85;;;2.47;;
16824;SDS011;8529;48.108;-1.706;2023-08-07T02:55:01;7.20;;;2.92;;
16824;SDS011;8529;48.108;-1.706;2023-08-07T02:57:29;6.90;;;2.75;;
16824;SDS011;8529;48.108;-1.706;2023-08-07T02:59:56;4.65;;;2.38;;
16824;SDS011;8529;48.108;-1.706;2023-08-07T03:02:23;4.88;;;2.33;;
16824;SDS011;8529;48.108;-1.706;2023-08-07T03:04:50;6.25;;;2.60;;
16824;SDS011;8529;48.108;-1.706;2023-08-07T03:07:19;7.35;;;2.28;;
16824;SDS011;8529;48.108;-1.706;2023-08-07T03:09:46;9.93;;;3.38;;
16824;SDS011;8529;48.108;-1.706;2023-08-07T03:12:13;7.15;;;2.63;;
16824;SDS011;8529;48.108;-1.706;2023-08-07T03:14:40;5.32;;;2.78;;
16824;SDS011;8529;48.108;-1.706;2023-08-07T03:17:07;13.50;;;2.85;;
16824;SDS011;8529;48.108;-1.706;2023-08-07T03:19:35;5.22;;;2.50;;
16824;SDS011;8529;48.108;-1.706;2023-08-07T03:22:03;8.18;;;3.00;;
16824;SDS011;8529;48.108;-1.706;2023-08-07T03:24:32;4.05;;;2.30;;
16824;SDS011;8529;48.108;-1.706;2023-08-07T03:26:59;7.13;;;2.60;;
16824;SDS011;8529;48.108;-1.706;2023-08-07T03:29:26;6.38;;;2.42;;
16824;SDS011;8529;48.108;-1.706;2023-08-07T03:31:53;6.00;;;2.70;;
16824;SDS011;8529;48.108;-1.706;2023-08-07T03:34:20;9.07;;;3.13;;
16824;SDS011;8529;48.108;-1.706;2023-08-07T03:36:48;7.10;;;2.50;;
16824;SDS011;8529;48.108;-1.706;2023-08-07T03:39:15;5.07;;;2.83;;
16824;SDS011;8529;48.108;-1.706;2023-08-07T03:41:44;7.43;;;2.83;;
16824;SDS011;8529;48.108;-1.706;2023-08-07T03:44:11;5.65;;;2.50;;
16824;SDS011;8529;48.108;-1.706;2023-08-07T03:46:39;4.18;;;2.70;;
16824;SDS011;8529;48.108;-1.706;2023-08-07T03:49:06;4.45;;;2.50;;
16824;SDS011;8529;48.108;-1.706;2023-08-07T03:51:33;4.00;;;2.38;;
16824;SDS011;8529;48.108;-1.706;2023-08-07T03:54:00;5.68;;;2.53;;
16824;SDS011;8529;48.108;-1.706;2023-08-07T03:56:27;6.65;;;2.88;;
16824;SDS011;8529;48.108;-1.706;2023-08-07T03:58:58;7.70;;;3.10;;
16824;SDS011;8529;48.108;-1.706;2023-08-07T04:01:26;6.30;;;2.53;;
16824;SDS011;8529;48.108;-1.706;2023-08-07T04:03:53;8.00;;;2.95;;
16824;SDS011;8529;48.108;-1.706;2023-08-07T04:06:20;7.65;;;2.92;;
16824;SDS011;8529;48.108;-1.706;2023-08-07T04:08:47;4.43;;;2.78;;
16824;SDS011;8529;48.108;-1.706;2023-08-07T04:11:14;6.75;;;3.58;;
16824;SDS011;8529;48.108;-1.706;2023-08-07T04:13:42;7.70;;;2.95;;
16824;SDS011;8529;48.108;-1.706;2023-08-07T04:16:10;5.75;;;2.58;;
16824;SDS011;8529;48.108;-1.706;2023-08-07T04:18:37;5.22;;;2.47;;
16824;SDS011;8529;48.108;-1.706;2023-08-07T04:21:05;6.30;;;3.15;;
16824;SDS011;8529;48.108;-1.706;2023-08-07T04:23:32;7.03;;;2.70;;
16824;SDS011;8529;48.108;-1.706;2023-08-07T04:25:59;4.45;;;2.75;;
16824;SDS011;8529;48.108;-1.706;2023-08-07T04:28:28;4.45;;;2.80;;
16824;SDS011;8529;48.108;-1.706;2023-08-07T04:30:55;5.68;;;2.95;;
16824;SDS011;8529;48.108;-1.706;2023-08-07T04:33:23;4.55;;;2.53;;
16824;SDS011;8529;48.108;-1.706;2023-08-07T04:35:51;5.72;;;3.33;;
16824;SDS011;8529;48.108;-1.706;2023-08-07T04:38:19;5.82;;;2.78;;
16824;SDS011;8529;48.108;-1.706;2023-08-07T04:40:46;3.88;;;2.35;;
16824;SDS011;8529;48.108;-1.706;2023-08-07T04:43:13;7.50;;;2.88;;
16824;SDS011;8529;48.108;-1.706;2023-08-07T04:45:41;6.47;;;3.40;;
16824;SDS011;8529;48.108;-1.706;2023-08-07T04:48:10;7.05;;;2.90;;
16824;SDS011;8529;48.108;-1.706;2023-08-07T04:50:38;6.15;;;2.72;;
16824;SDS011;8529;48.108;-1.706;2023-08-07T04:53:06;5.35;;;2.72;;
16824;SDS011;8529;48.108;-1.706;2023-08-07T04:55:33;4.85;;;2.67;;
16824;SDS011;8529;48.108;-1.706;2023-08-07T04:58:00;5.97;;;2.92;;
16824;SDS011;8529;48.108;-1.706;2023-08-07T05:00:27;10.02;;;3.63;;
16824;SDS011;8529;48.108;-1.706;2023-08-07T05:02:55;7.10;;;3.53;;
16824;SDS011;8529;48.108;-1.706;2023-08-07T05:05:22;8.13;;;3.30;;
16824;SDS011;8529;48.108;-1.706;2023-08-07T05:07:50;6.80;;;2.75;;
16824;SDS011;8529;48.108;-1.706;2023-08-07T05:10:18;8.48;;;3.45;;
16824;SDS011;8529;48.108;-1.706;2023-08-07T05:12:45;7.18;;;3.30;;
16824;SDS011;8529;48.108;-1.706;2023-08-07T05:15:12;7.57;;;3.63;;
16824;SDS011;8529;48.108;-1.706;2023-08-07T05:17:39;6.15;;;3.47;;
16824;SDS011;8529;48.108;-1.706;2023-08-07T05:20:07;6.60;;;3.65;;
16824;SDS011;8529;48.108;-1.706;2023-08-07T05:22:35;8.10;;;3.17;;
16824;SDS011;8529;48.108;-1.706;2023-08-07T05:25:05;7.82;;;3.28;;
16824;SDS011;8529;48.108;-1.706;2023-08-07T05:27:32;10.07;;;4.10;;
16824;SDS011;8529;48.108;-1.706;2023-08-07T05:30:00;9.10;;;4.15;;
16824;SDS011;8529;48.108;-1.706;2023-08-07T05:32:27;9.65;;;5.07;;
16824;SDS011;8529;48.108;-1.706;2023-08-07T05:34:54;10.35;;;4.63;;
16824;SDS011;8529;48.108;-1.706;2023-08-07T05:37:21;8.23;;;4.63;;
16824;SDS011;8529;48.108;-1.706;2023-08-07T05:39:48;11.10;;;5.38;;
16824;SDS011;8529;48.108;-1.706;2023-08-07T05:42:17;13.55;;;5.20;;
16824;SDS011;8529;48.108;-1.706;2023-08-07T05:44:44;8.20;;;4.25;;
16824;SDS011;8529;48.108;-1.706;2023-08-07T05:47:11;10.65;;;4.13;;
16824;SDS011;8529;48.108;-1.706;2023-08-07T05:49:39;10.35;;;4.82;;
16824;SDS011;8529;48.108;-1.706;2023-08-07T05:52:06;10.35;;;4.70;;
16824;SDS011;8529;48.108;-1.706;2023-08-07T05:54:33;9.65;;;4.00;;
16824;SDS011;8529;48.108;-1.706;2023-08-07T05:57:01;8.38;;;4.43;;
16824;SDS011;8529;48.108;-1.706;2023-08-07T05:59:29;10.07;;;4.07;;
16824;SDS011;8529;48.108;-1.706;2023-08-07T06:01:56;5.80;;;4.05;;
16824;SDS011;8529;48.108;-1.706;2023-08-07T06:04:24;7.47;;;4.07;;
16824;SDS011;8529;48.108;-1.706;2023-08-07T06:06:51;8.63;;;3.67;;
16824;SDS011;8529;48.108;-1.706;2023-08-07T06:09:18;7.70;;;3.50;;
16824;SDS011;8529;48.108;-1.706;2023-08-07T06:11:46;7.97;;;3.90;;
16824;SDS011;8529;48.108;-1.706;2023-08-07T06:14:13;11.23;;;4.47;;
16824;SDS011;8529;48.108;-1.706;2023-08-07T06:16:42;6.95;;;3.58;;
16824;SDS011;8529;48.108;-1.706;2023-08-07T06:19:09;8.00;;;4.43;;
16824;SDS011;8529;48.108;-1.706;2023-08-07T06:21:36;10.23;;;4.30;;
16824;SDS011;8529;48.108;-1.706;2023-08-07T06:24:04;8.07;;;4.00;;
16824;SDS011;8529;48.108;-1.706;2023-08-07T06:26:31;9.10;;;4.50;;
16824;SDS011;8529;48.108;-1.706;2023-08-07T06:28:59;6.75;;;3.72;;
16824;SDS011;8529;48.108;-1.706;2023-08-07T06:31:26;7.18;;;3.60;;
16824;SDS011;8529;48.108;-1.706;2023-08-07T06:33:54;6.85;;;3.53;;
16824;SDS011;8529;48.108;-1.706;2023-08-07T06:36:21;7.38;;;3.75;;
16824;SDS011;8529;48.108;-1.706;2023-08-07T06:38:49;7.55;;;3.90;;
16824;SDS011;8529;48.108;-1.706;2023-08-07T06:41:16;7.07;;;4.03;;
16824;SDS011;8529;48.108;-1.706;2023-08-07T06:43:43;8.27;;;4.05;;
16824;SDS011;8529;48.108;-1.706;2023-08-07T06:46:10;7.43;;;4.32;;
16824;SDS011;8529;48.108;-1.706;2023-08-07T06:48:37;6.32;;;4.43;;
16824;SDS011;8529;48.108;-1.706;2023-08-07T06:51:06;5.90;;;3.97;;
16824;SDS011;8529;48.108;-1.706;2023-08-07T06:53:33;5.13;;;3.70;;
16824;SDS011;8529;48.108;-1.706;2023-08-07T06:56:00;12.02;;;4.40;;
16824;SDS011;8529;48.108;-1.706;2023-08-07T06:58:27;7.82;;;3.90;;
16824;SDS011;8529;48.108;-1.706;2023-08-07T07:00:54;8.95;;;4.15;;
16824;SDS011;8529;48.108;-1.706;2023-08-07T07:03:22;9.55;;;4.88;;
16824;SDS011;8529;48.108;-1.706;2023-08-07T07:05:49;10.77;;;4.53;;
16824;SDS011;8529;48.108;-1.706;2023-08-07T07:08:17;7.25;;;3.92;;
16824;SDS011;8529;48.108;-1.706;2023-08-07T07:10:45;7.10;;;3.97;;
16824;SDS011;8529;48.108;-1.706;2023-08-07T07:13:12;6.55;;;4.28;;
16824;SDS011;8529;48.108;-1.706;2023-08-07T07:15:39;7.30;;;4.20;;
16824;SDS011;8529;48.108;-1.706;2023-08-07T07:18:06;9.63;;;4.85;;
16824;SDS011;8529;48.108;-1.706;2023-08-07T07:20:33;8.85;;;3.90;;
16824;SDS011;8529;48.108;-1.706;2023-08-07T07:23:00;8.93;;;4.05;;
16824;SDS011;8529;48.108;-1.706;2023-08-07T07:25:29;7.63;;;4.03;;
16824;SDS011;8529;48.108;-1.706;2023-08-07T07:27:56;7.60;;;4.22;;
16824;SDS011;8529;48.108;-1.706;2023-08-07T07:30:23;7.10;;;3.92;;
16824;SDS011;8529;48.108;-1.706;2023-08-07T07:32:50;5.75;;;3.80;;
16824;SDS011;8529;48.108;-1.706;2023-08-07T07:35:18;5.65;;;4.55;;
16824;SDS011;8529;48.108;-1.706;2023-08-07T07:37:45;8.27;;;4.53;;
16824;SDS011;8529;48.108;-1.706;2023-08-07T07:40:12;10.85;;;5.50;;
16824;SDS011;8529;48.108;-1.706;2023-08-07T07:42:40;10.45;;;4.40;;
16824;SDS011;8529;48.108;-1.706;2023-08-07T07:45:08;13.18;;;4.43;;
16824;SDS011;8529;48.108;-1.706;2023-08-07T07:47:35;8.30;;;3.78;;
16824;SDS011;8529;48.108;-1.706;2023-08-07T07:50:06;10.80;;;4.70;;
16824;SDS011;8529;48.108;-1.706;2023-08-07T07:52:33;8.73;;;4.22;;
16824;SDS011;8529;48.108;-1.706;2023-08-07T07:55:01;9.57;;;4.20;;
16824;SDS011;8529;48.108;-1.706;2023-08-07T07:57:28;9.73;;;4.18;;
16824;SDS011;8529;48.108;-1.706;2023-08-07T07:59:57;7.68;;;4.13;;
16824;SDS011;8529;48.108;-1.706;2023-08-07T08:02:24;7.93;;;3.60;;
16824;SDS011;8529;48.108;-1.706;2023-08-07T08:04:51;6.13;;;3.70;;
16824;SDS011;8529;48.108;-1.706;2023-08-07T08:07:19;10.40;;;4.00;;
16824;SDS011;8529;48.108;-1.706;2023-08-07T08:09:46;7.32;;;3.60;;
16824;SDS011;8529;48.108;-1.706;2023-08-07T08:12:13;6.93;;;3.70;;
16824;SDS011;8529;48.108;-1.706;2023-08-07T08:14:40;5.72;;;3.38;;
16824;SDS011;8529;48.108;-1.706;2023-08-07T08:17:09;8.55;;;3.90;;
16824;SDS011;8529;48.108;-1.706;2023-08-07T08:19:36;5.93;;;3.25;;
16824;SDS011;8529;48.108;-1.706;2023-08-07T08:22:03;5.20;;;3.05;;
16824;SDS011;8529;48.108;-1.706;2023-08-07T08:24:31;15.25;;;3.65;;
16824;SDS011;8529;48.108;-1.706;2023-08-07T08:26:58;5.60;;;3.03;;
16824;SDS011;8529;48.108;-1.706;2023-08-07T08:29:26;8.00;;;2.95;;
16824;SDS011;8529;48.108;-1.706;2023-08-07T08:31:53;5.45;;;2.65;;
16824;SDS011;8529;48.108;-1.706;2023-08-07T08:34:22;6.22;;;2.67;;
16824;SDS011;8529;48.108;-1.706;2023-08-07T08:36:49;6.30;;;2.45;;
16824;SDS011;8529;48.108;-1.706;2023-08-07T08:39:16;4.35;;;2.20;;
16824;SDS011;8529;48.108;-1.706;2023-08-07T08:41:46;5.60;;;2.05;;
16824;SDS011;8529;48.108;-1.706;2023-08-07T08:44:13;4.63;;;2.20;;
16824;SDS011;8529;48.108;-1.706;2023-08-07T08:46:41;4.68;;;2.17;;
16824;SDS011;8529;48.108;-1.706;2023-08-07T08:49:09;2.75;;;1.90;;
16824;SDS011;8529;48.108;-1.706;2023-08-07T08:51:38;4.25;;;1.75;;
16824;SDS011;8529;48.108;-1.706;2023-08-07T08:54:06;3.03;;;1.70;;
16824;SDS011;8529;48.108;-1.706;2023-08-07T08:56:33;3.83;;;1.80;;
16824;SDS011;8529;48.108;-1.706;2023-08-07T08:59:01;4.10;;;1.67;;
16824;SDS011;8529;48.108;-1.706;2023-08-07T09:01:28;2.92;;;1.63;;
16824;SDS011;8529;48.108;-1.706;2023-08-07T09:03:56;4.50;;;1.80;;
16824;SDS011;8529;48.108;-1.706;2023-08-07T09:06:24;2.95;;;1.83;;
16824;SDS011;8529;48.108;-1.706;2023-08-07T09:08:53;5.70;;;2.05;;
16824;SDS011;8529;48.108;-1.706;2023-08-07T09:11:21;3.17;;;1.73;;
16824;SDS011;8529;48.108;-1.706;2023-08-07T09:13:48;2.88;;;1.48;;
16824;SDS011;8529;48.108;-1.706;2023-08-07T09:16:16;3.53;;;1.48;;
16824;SDS011;8529;48.108;-1.706;2023-08-07T09:18:44;4.28;;;1.40;;
16824;SDS011;8529;48.108;-1.706;2023-08-07T09:21:13;2.67;;;1.30;;
16824;SDS011;8529;48.108;-1.706;2023-08-07T09:23:42;4.03;;;1.40;;
16824;SDS011;8529;48.108;-1.706;2023-08-07T09:26:10;3.17;;;1.48;;
16824;SDS011;8529;48.108;-1.706;2023-08-07T09:28:37;7.63;;;1.80;;
16824;SDS011;8529;48.108;-1.706;2023-08-07T09:31:05;5.68;;;1.70;;
16824;SDS011;8529;48.108;-1.706;2023-08-07T09:33:33;4.82;;;1.67;;
16824;SDS011;8529;48.108;-1.706;2023-08-07T09:36:01;5.68;;;2.05;;
16824;SDS011;8529;48.108;-1.706;2023-08-07T09:38:29;5.00;;;1.80;;
16824;SDS011;8529;48.108;-1.706;2023-08-07T09:40:57;3.10;;;1.30;;
16824;SDS011;8529;48.108;-1.706;2023-08-07T09:43:26;3.75;;;1.50;;
16824;SDS011;8529;48.108;-1.706;2023-08-07T09:46:01;9.90;;;3.35;;
16824;SDS011;8529;48.108;-1.706;2023-08-07T09:48:28;6.47;;;2.05;;
16824;SDS011;8529;48.108;-1.706;2023-08-07T09:50:58;3.42;;;1.75;;
16824;SDS011;8529;48.108;-1.706;2023-08-07T09:53:29;5.63;;;1.65;;
16824;SDS011;8529;48.108;-1.706;2023-08-07T09:55:56;2.80;;;1.42;;
16824;SDS011;8529;48.108;-1.706;2023-08-07T09:58:23;3.33;;;1.73;;
16824;SDS011;8529;48.108;-1.706;2023-08-07T10:00:52;4.47;;;1.23;;
16824;SDS011;8529;48.108;-1.706;2023-08-07T10:03:24;2.10;;;1.00;;
16824;SDS011;8529;48.108;-1.706;2023-08-07T10:05:52;5.07;;;1.63;;
16824;SDS011;8529;48.108;-1.706;2023-08-07T10:08:19;2.35;;;1.25;;
16824;SDS011;8529;48.108;-1.706;2023-08-07T10:10:47;4.03;;;1.63;;
16824;SDS011;8529;48.108;-1.706;2023-08-07T10:13:15;9.35;;;3.17;;
16824;SDS011;8529;48.108;-1.706;2023-08-07T10:15:42;4.60;;;1.90;;
16824;SDS011;8529;48.108;-1.706;2023-08-07T10:18:11;7.65;;;1.88;;
16824;SDS011;8529;48.108;-1.706;2023-08-07T10:20:38;4.82;;;1.88;;
16824;SDS011;8529;48.108;-1.706;2023-08-07T10:23:07;4.47;;;1.25;;
16824;SDS011;8529;48.108;-1.706;2023-08-07T10:25:35;1.55;;;1.23;;
16824;SDS011;8529;48.108;-1.706;2023-08-07T10:28:04;2.95;;;1.30;;
16824;SDS011;8529;48.108;-1.706;2023-08-07T10:30:32;1.65;;;1.00;;
16824;SDS011;8529;48.108;-1.706;2023-08-07T10:33:00;2.45;;;1.13;;
16824;SDS011;8529;48.108;-1.706;2023-08-07T10:35:30;1.52;;;1.10;;
16824;SDS011;8529;48.108;-1.706;2023-08-07T10:38:05;3.15;;;1.05;;
16824;SDS011;8529;48.108;-1.706;2023-08-07T10:40:32;2.35;;;1.48;;
16824;SDS011;8529;48.108;-1.706;2023-08-07T10:43:01;4.60;;;1.70;;
16824;SDS011;8529;48.108;-1.706;2023-08-07T10:45:38;2.70;;;1.25;;
16824;SDS011;8529;48.108;-1.706;2023-08-07T10:48:06;1.33;;;1.10;;
16824;SDS011;8529;48.108;-1.706;2023-08-07T10:50:35;3.83;;;1.42;;
16824;SDS011;8529;48.108;-1.706;2023-08-07T10:53:03;2.67;;;1.10;;
16824;SDS011;8529;48.108;-1.706;2023-08-07T10:55:42;2.95;;;1.30;;
16824;SDS011;8529;48.108;-1.706;2023-08-07T10:58:20;2.88;;;1.15;;
16824;SDS011;8529;48.108;-1.706;2023-08-07T11:00:48;1.80;;;1.00;;
16824;SDS011;8529;48.108;-1.706;2023-08-07T11:03:19;2.53;;;1.08;;
16824;SDS011;8529;48.108;-1.706;2023-08-07T11:05:48;1.17;;;0.98;;
16824;SDS011;8529;48.108;-1.706;2023-08-07T11:08:16;2.88;;;1.08;;
16824;SDS011;8529;48.108;-1.706;2023-08-07T11:10:48;1.35;;;1.00;;
16824;SDS011;8529;48.108;-1.706;2023-08-07T11:13:15;2.03;;;1.08;;
16824;SDS011;8529;48.108;-1.706;2023-08-07T11:15:42;3.97;;;1.45;;
16824;SDS011;8529;48.108;-1.706;2023-08-07T11:18:10;1.70;;;1.05;;
16824;SDS011;8529;48.108;-1.706;2023-08-07T11:20:37;2.67;;;1.20;;
16824;SDS011;8529;48.108;-1.706;2023-08-07T11:23:06;2.47;;;1.17;;
16824;SDS011;8529;48.108;-1.706;2023-08-07T11:25:33;2.40;;;1.30;;
16824;SDS011;8529;48.108;-1.706;2023-08-07T11:28:00;2.05;;;1.13;;
16824;SDS011;8529;48.108;-1.706;2023-08-07T11:30:27;1.55;;;1.27;;
16824;SDS011;8529;48.108;-1.706;2023-08-07T11:32:56;1.52;;;1.10;;
16824;SDS011;8529;48.108;-1.706;2023-08-07T11:35:23;4.78;;;1.30;;
16824;SDS011;8529;48.108;-1.706;2023-08-07T11:37:50;3.42;;;1.23;;
16824;SDS011;8529;48.108;-1.706;2023-08-07T11:40:20;2.95;;;1.05;;
16824;SDS011;8529;48.108;-1.706;2023-08-07T11:42:48;3.42;;;1.40;;
16824;SDS011;8529;48.108;-1.706;2023-08-07T11:45:15;5.05;;;1.23;;
16824;SDS011;8529;48.108;-1.706;2023-08-07T11:47:42;2.55;;;1.45;;
16824;SDS011;8529;48.108;-1.706;2023-08-07T11:50:09;2.08;;;1.02;;
16824;SDS011;8529;48.108;-1.706;2023-08-07T11:52:37;2.92;;;0.90;;
16824;SDS011;8529;48.108;-1.706;2023-08-07T11:55:05;1.63;;;1.02;;
16824;SDS011;8529;48.108;-1.706;2023-08-07T11:57:37;2.03;;;0.93;;
16824;SDS011;8529;48.108;-1.706;2023-08-07T12:00:06;2.88;;;1.00;;
16824;SDS011;8529;48.108;-1.706;2023-08-07T12:02:38;2.25;;;0.90;;
16824;SDS011;8529;48.108;-1.706;2023-08-07T12:05:07;1.48;;;1.10;;
16824;SDS011;8529;48.108;-1.706;2023-08-07T12:07:36;2.08;;;0.90;;
16824;SDS011;8529;48.108;-1.706;2023-08-07T12:10:03;2.55;;;1.13;;
16824;SDS011;8529;48.108;-1.706;2023-08-07T12:12:32;1.80;;;1.10;;
16824;SDS011;8529;48.108;-1.706;2023-08-07T12:15:01;2.33;;;1.20;;
16824;SDS011;8529;48.108;-1.706;2023-08-07T12:17:30;3.00;;;1.00;;
16824;SDS011;8529;48.108;-1.706;2023-08-07T12:19:58;3.47;;;0.95;;
16824;SDS011;8529;48.108;-1.706;2023-08-07T12:22:26;2.53;;;1.10;;
16824;SDS011;8529;48.108;-1.706;2023-08-07T12:24:54;2.88;;;1.30;;
16824;SDS011;8529;48.108;-1.706;2023-08-07T12:27:21;2.40;;;1.15;;
16824;SDS011;8529;48.108;-1.706;2023-08-07T12:29:49;1.67;;;1.10;;
16824;SDS011;8529;48.108;-1.706;2023-08-07T12:32:17;1.95;;;1.00;;
16824;SDS011;8529;48.108;-1.706;2023-08-07T12:34:44;2.05;;;1.15;;
16824;SDS011;8529;48.108;-1.706;2023-08-07T12:37:11;1.08;;;0.88;;
16824;SDS011;8529;48.108;-1.706;2023-08-07T12:39:39;2.38;;;1.08;;
16824;SDS011;8529;48.108;-1.706;2023-08-07T12:42:06;2.60;;;1.73;;
16824;SDS011;8529;48.108;-1.706;2023-08-07T12:44:33;2.85;;;1.10;;
16824;SDS011;8529;48.108;-1.706;2023-08-07T12:47:00;1.75;;;1.10;;
16824;SDS011;8529;48.108;-1.706;2023-08-07T12:49:29;2.45;;;1.30;;
16824;SDS011;8529;48.108;-1.706;2023-08-07T12:51:56;2.92;;;1.20;;
16824;SDS011;8529;48.108;-1.706;2023-08-07T12:54:23;3.50;;;1.25;;
16824;SDS011;8529;48.108;-1.706;2023-08-07T12:56:50;3.10;;;1.20;;
16824;SDS011;8529;48.108;-1.706;2023-08-07T12:59:20;2.20;;;1.10;;
16824;SDS011;8529;48.108;-1.706;2023-08-07T13:01:47;4.20;;;0.98;;
16824;SDS011;8529;48.108;-1.706;2023-08-07T13:04:14;1.30;;;0.85;;
16824;SDS011;8529;48.108;-1.706;2023-08-07T13:06:43;3.58;;;1.10;;
16824;SDS011;8529;48.108;-1.706;2023-08-07T13:09:10;1.90;;;1.30;;
16824;SDS011;8529;48.108;-1.706;2023-08-07T13:11:37;2.80;;;1.08;;
16824;SDS011;8529;48.108;-1.706;2023-08-07T13:14:05;4.35;;;1.40;;
16824;SDS011;8529;48.108;-1.706;2023-08-07T13:16:32;1.58;;;0.93;;
16824;SDS011;8529;48.108;-1.706;2023-08-07T13:18:59;1.33;;;1.20;;
16824;SDS011;8529;48.108;-1.706;2023-08-07T13:21:26;2.20;;;1.00;;
16824;SDS011;8529;48.108;-1.706;2023-08-07T13:23:55;2.33;;;1.30;;
16824;SDS011;8529;48.108;-1.706;2023-08-07T13:26:22;2.05;;;1.05;;
16824;SDS011;8529;48.108;-1.706;2023-08-07T13:28:49;2.92;;;1.60;;
16824;SDS011;8529;48.108;-1.706;2023-08-07T13:31:16;3.63;;;1.27;;
16824;SDS011;8529;48.108;-1.706;2023-08-07T13:33:43;3.55;;;1.30;;
16824;SDS011;8529;48.108;-1.706;2023-08-07T13:36:11;1.20;;;1.10;;
16824;SDS011;8529;48.108;-1.706;2023-08-07T13:38:38;2.13;;;1.30;;
16824;SDS011;8529;48.108;-1.706;2023-08-07T13:41:07;1.90;;;1.15;;
16824;SDS011;8529;48.108;-1.706;2023-08-07T13:43:34;2.85;;;1.33;;
16824;SDS011;8529;48.108;-1.706;2023-08-07T13:46:01;1.88;;;1.15;;
16824;SDS011;8529;48.108;-1.706;2023-08-07T13:48:28;2.58;;;1.23;;
16824;SDS011;8529;48.108;-1.706;2023-08-07T13:50:58;2.10;;;0.95;;
16824;SDS011;8529;48.108;-1.706;2023-08-07T13:53:29;2.33;;;0.98;;
16824;SDS011;8529;48.108;-1.706;2023-08-07T13:55:56;1.92;;;1.10;;
16824;SDS011;8529;48.108;-1.706;2023-08-07T13:58:25;2.47;;;1.08;;
16824;SDS011;8529;48.108;-1.706;2023-08-07T14:00:52;1.90;;;1.00;;
16824;SDS011;8529;48.108;-1.706;2023-08-07T14:03:20;2.10;;;1.13;;
16824;SDS011;8529;48.108;-1.706;2023-08-07T14:05:48;2.35;;;1.30;;
16824;SDS011;8529;48.108;-1.706;2023-08-07T14:08:15;1.98;;;1.13;;
16824;SDS011;8529;48.108;-1.706;2023-08-07T14:10:42;1.98;;;1.08;;
16824;SDS011;8529;48.108;-1.706;2023-08-07T14:13:09;2.53;;;1.10;;
16824;SDS011;8529;48.108;-1.706;2023-08-07T14:15:38;3.25;;;1.00;;
16824;SDS011;8529;48.108;-1.706;2023-08-07T14:18:05;2.38;;;1.30;;
16824;SDS011;8529;48.108;-1.706;2023-08-07T14:20:32;4.80;;;1.52;;
16824;SDS011;8529;48.108;-1.706;2023-08-07T14:23:00;2.30;;;1.00;;
16824;SDS011;8529;48.108;-1.706;2023-08-07T14:25:27;2.55;;;1.08;;
16824;SDS011;8529;48.108;-1.706;2023-08-07T14:27:54;2.08;;;1.17;;
16824;SDS011;8529;48.108;-1.706;2023-08-07T14:30:21;1.30;;;0.90;;
16824;SDS011;8529;48.108;-1.706;2023-08-07T14:32:50;1.63;;;0.95;;
16824;SDS011;8529;48.108;-1.706;2023-08-07T14:35:17;1.45;;;1.20;;
16824;SDS011;8529;48.108;-1.706;2023-08-07T14:37:44;2.65;;;1.40;;
16824;SDS011;8529;48.108;-1.706;2023-08-07T14:40:12;1.33;;;0.90;;
16824;SDS011;8529;48.108;-1.706;2023-08-07T14:42:40;1.92;;;1.00;;
16824;SDS011;8529;48.108;-1.706;2023-08-07T14:45:07;1.45;;;1.10;;
16824;SDS011;8529;48.108;-1.706;2023-08-07T14:47:34;2.65;;;1.00;;
16824;SDS011;8529;48.108;-1.706;2023-08-07T14:50:03;1.17;;;1.00;;